createdAt,value
2018-08-04T00:00:48.862Z,80.20
2018-08-04T00:03:17.410Z,80.60
2018-08-04T00:05:45.747Z,80.70
2018-08-04T00:08:14.118Z,80.80
2018-08-04T00:10:42.546Z,81.10
2018-08-04T00:13:10.885Z,81.40
2018-08-04T00:15:39.249Z,82.10
2018-08-04T00:18:07.593Z,81.70
2018-08-04T00:20:35.934Z,82.20
2018-08-04T00:23:04.280Z,82.40
2018-08-04T00:25:32.635Z,82.60
2018-08-04T00:28:00.979Z,82.90
2018-08-04T00:30:29.306Z,83.00
2018-08-04T00:32:57.663Z,83.10
2018-08-04T00:35:25.966Z,83.10
2018-08-04T00:37:54.394Z,83.40
2018-08-04T00:40:22.764Z,82.80
2018-08-04T00:42:51.179Z,83.00
2018-08-04T00:45:19.552Z,83.10
2018-08-04T00:47:47.871Z,83.20
2018-08-04T00:50:16.306Z,83.30
2018-08-04T00:55:12.818Z,83.60
2018-08-04T00:57:41.125Z,83.70
2018-08-04T01:00:09.512Z,83.70
2018-08-04T01:02:37.910Z,83.60
2018-08-04T01:05:06.272Z,83.40
2018-08-04T01:10:04.462Z,83.40
2018-08-04T01:12:33.047Z,83.80
2018-08-04T01:15:01.835Z,83.60
2018-08-04T01:17:30.746Z,84.40
2018-08-04T01:20:05.994Z,84.50
2018-08-04T01:22:36.006Z,84.70
2018-08-04T01:25:05.307Z,85.10
2018-08-04T01:27:33.734Z,85.40
2018-08-04T01:30:02.103Z,85.20
2018-08-04T01:32:30.449Z,85.50
2018-08-04T01:34:58.847Z,85.90
2018-08-04T01:37:27.339Z,86.10
2018-08-04T01:39:55.722Z,86.30
2018-08-04T01:42:24.071Z,86.20
2018-08-04T01:44:52.451Z,86.20
2018-08-04T01:47:20.844Z,86.40
2018-08-04T01:49:49.329Z,86.00
2018-08-04T01:52:17.714Z,86.30
2018-08-04T01:54:46.097Z,86.80
2018-08-04T01:57:14.438Z,87.50
2018-08-04T01:59:42.816Z,87.40
2018-08-04T02:02:11.193Z,88.20
2018-08-04T02:04:39.614Z,88.80
2018-08-04T02:07:07.963Z,88.80
2018-08-04T02:09:36.326Z,89.00
2018-08-04T02:12:04.678Z,89.30
2018-08-04T02:14:33.146Z,89.60
2018-08-04T02:17:01.522Z,89.90
2018-08-04T02:19:29.912Z,90.00
2018-08-04T02:21:58.307Z,90.20
2018-08-04T02:24:26.624Z,90.30
2018-08-04T02:26:54.990Z,90.70
2018-08-04T02:29:23.377Z,90.20
2018-08-04T02:31:51.798Z,90.20
2018-08-04T02:34:20.182Z,90.30
2018-08-04T02:36:48.520Z,90.20
2018-08-04T02:39:16.886Z,90.20
2018-08-04T02:41:45.266Z,90.20
2018-08-04T02:44:13.590Z,90.20
2018-08-04T02:46:41.951Z,90.00
2018-08-04T02:49:10.312Z,89.70
2018-08-04T02:51:38.673Z,88.30
2018-08-04T02:54:07.031Z,88.40
2018-08-04T02:56:35.390Z,88.50
2018-08-04T02:59:03.731Z,88.90
2018-08-04T03:01:32.120Z,89.30
2018-08-04T03:04:00.466Z,89.50
2018-08-04T03:06:29.074Z,89.70
2018-08-04T03:08:57.451Z,90.00
2018-08-04T03:11:25.897Z,90.20
2018-08-04T03:13:54.278Z,90.40
2018-08-04T03:16:22.595Z,90.50
2018-08-04T03:18:50.968Z,90.70
2018-08-04T03:21:19.419Z,90.60
2018-08-04T03:23:47.774Z,90.70
2018-08-04T03:26:16.167Z,90.60
2018-08-04T03:28:44.554Z,90.50
2018-08-04T03:31:12.928Z,90.30
2018-08-04T03:33:41.282Z,90.30
2018-08-04T03:36:09.629Z,90.20
2018-08-04T03:38:38.045Z,90.00
2018-08-04T03:41:06.386Z,90.10
2018-08-04T03:43:34.711Z,89.90
2018-08-04T03:46:03.059Z,90.00
2018-08-04T03:48:31.370Z,89.90
2018-08-04T03:50:59.744Z,89.80
2018-08-04T03:53:28.159Z,89.90
2018-08-04T03:55:56.512Z,90.10
2018-08-04T03:58:24.916Z,90.00
2018-08-04T04:00:53.403Z,90.00
2018-08-04T04:03:21.768Z,90.10
2018-08-04T04:05:50.133Z,90.30
2018-08-04T04:08:18.483Z,90.50
2018-08-04T04:10:46.886Z,90.50
2018-08-04T04:13:15.230Z,90.80
2018-08-04T04:15:43.586Z,90.90
2018-08-04T04:20:40.023Z,91.00
2018-08-04T04:23:08.439Z,91.20
2018-08-04T04:25:36.822Z,91.10
2018-08-04T04:28:05.230Z,91.10
2018-08-04T04:30:33.904Z,91.10
2018-08-04T04:33:02.223Z,91.20
2018-08-04T04:35:30.566Z,91.20
2018-08-04T04:37:59.019Z,91.30
2018-08-04T04:40:27.398Z,91.30
2018-08-04T04:42:55.713Z,91.40
2018-08-04T04:45:24.216Z,91.50
2018-08-04T04:47:52.613Z,91.40
2018-08-04T04:50:21.024Z,91.00
2018-08-04T04:52:49.420Z,90.90
2018-08-04T04:55:17.790Z,90.90
2018-08-04T04:57:46.099Z,91.00
2018-08-04T05:00:14.492Z,91.30
2018-08-04T05:02:43.143Z,91.40
2018-08-04T05:05:11.525Z,91.50
2018-08-04T05:07:39.898Z,91.40
2018-08-04T05:10:08.709Z,91.40
2018-08-04T05:12:37.059Z,91.20
2018-08-04T05:15:06.250Z,91.10
2018-08-04T05:17:34.641Z,91.10
2018-08-04T05:20:03.331Z,91.10
2018-08-04T05:22:31.774Z,91.10
2018-08-04T05:25:00.136Z,91.00
2018-08-04T05:27:28.512Z,91.00
2018-08-04T05:29:56.908Z,91.10
2018-08-04T05:32:25.263Z,91.10
2018-08-04T05:37:21.811Z,91.00
2018-08-04T05:39:50.150Z,90.90
2018-08-04T05:42:18.526Z,90.80
2018-08-04T05:44:46.928Z,90.70
2018-08-04T05:47:16.014Z,90.50
2018-08-04T05:49:44.331Z,90.60
2018-08-04T05:52:12.665Z,90.50
2018-08-04T05:54:41.063Z,90.30
2018-08-04T05:57:09.427Z,90.20
2018-08-04T05:59:37.785Z,90.10
2018-08-04T06:02:06.161Z,90.00
2018-08-04T06:04:34.615Z,90.10
2018-08-04T06:07:02.962Z,90.10
2018-08-04T06:09:31.588Z,90.20
2018-08-04T06:11:59.953Z,90.30
2018-08-04T06:14:28.561Z,90.20
2018-08-04T06:16:56.872Z,90.10
2018-08-04T06:19:25.283Z,90.10
2018-08-04T06:21:53.580Z,90.20
2018-08-04T06:24:21.961Z,90.00
2018-08-04T06:26:50.374Z,89.90
2018-08-04T06:29:18.823Z,89.50
2018-08-04T06:31:47.194Z,88.10
2018-08-04T06:34:15.580Z,87.90
2018-08-04T06:36:43.997Z,88.00
2018-08-04T06:39:12.399Z,86.80
2018-08-04T06:44:08.909Z,85.60
2018-08-04T06:46:37.734Z,83.10
2018-08-04T06:49:06.146Z,82.40
2018-08-04T06:51:34.478Z,82.10
2018-08-04T06:54:02.970Z,81.00
2018-08-04T06:56:31.287Z,81.50
2018-08-04T06:58:59.639Z,81.10
2018-08-04T07:03:56.189Z,80.60
2018-08-04T07:08:52.664Z,80.70
2018-08-04T07:11:21.037Z,80.20
2018-08-04T07:13:49.426Z,79.60
2018-08-04T07:16:17.779Z,79.80
2018-08-04T07:18:46.271Z,79.20
2018-08-04T07:21:14.627Z,79.30
2018-08-04T07:23:43.016Z,79.30
2018-08-04T07:26:11.419Z,79.20
2018-08-04T07:28:39.855Z,79.70
2018-08-04T07:31:08.311Z,77.30
2018-08-04T07:33:36.723Z,76.90
2018-08-04T07:36:05.035Z,77.20
2018-08-04T07:38:33.484Z,77.90
2018-08-04T07:41:01.821Z,77.10
2018-08-04T07:43:30.210Z,77.50
2018-08-04T07:45:58.568Z,75.40
2018-08-04T07:48:26.902Z,75.90
2018-08-04T07:50:55.887Z,76.50
2018-08-04T07:53:24.292Z,77.40
2018-08-04T07:55:52.683Z,77.80
2018-08-04T07:58:21.027Z,75.40
2018-08-04T08:00:49.363Z,74.90
2018-08-04T08:03:17.783Z,73.50
2018-08-04T08:05:46.136Z,73.70
2018-08-04T08:08:14.505Z,73.50
2018-08-04T08:10:43.020Z,68.70
2018-08-04T08:13:11.309Z,66.80
2018-08-04T08:15:39.707Z,67.00
2018-08-04T08:18:08.024Z,66.90
2018-08-04T08:20:36.459Z,66.20
2018-08-04T08:25:32.927Z,67.70
2018-08-04T08:28:01.286Z,66.80
2018-08-04T08:30:30.050Z,67.70
2018-08-04T08:32:58.478Z,67.20
2018-08-04T08:35:26.845Z,67.20
2018-08-04T08:37:55.284Z,66.90
2018-08-04T08:40:23.629Z,66.50
2018-08-04T08:42:51.972Z,67.30
2018-08-04T08:45:25.759Z,65.60
2018-08-04T08:47:54.135Z,63.90
2018-08-04T08:50:22.432Z,64.80
2018-08-04T08:52:50.782Z,64.20
2018-08-04T08:55:19.102Z,63.80
2018-08-04T09:00:16.369Z,63.80
2018-08-04T09:05:12.782Z,63.00
2018-08-04T09:07:41.114Z,61.80
2018-08-04T09:10:13.051Z,62.60
2018-08-04T09:12:41.913Z,61.50
2018-08-04T09:15:10.257Z,61.30
2018-08-04T09:17:38.605Z,62.40
2018-08-04T09:20:07.835Z,62.80
2018-08-04T09:22:36.236Z,62.10
2018-08-04T09:25:05.701Z,62.10
2018-08-04T09:27:34.277Z,62.90
2018-08-04T09:30:02.663Z,62.80
2018-08-04T09:32:31.030Z,62.60
2018-08-04T09:34:59.731Z,64.50
2018-08-04T09:37:28.091Z,64.70
2018-08-04T09:42:24.575Z,64.30
2018-08-04T09:44:52.939Z,63.70
2018-08-04T09:47:21.261Z,61.30
2018-08-04T09:49:49.555Z,61.30
2018-08-04T09:52:18.051Z,60.00
2018-08-04T09:54:46.363Z,60.00
2018-08-04T09:57:14.706Z,60.10
2018-08-04T09:59:43.131Z,60.30
2018-08-04T10:02:12.522Z,60.20
2018-08-04T10:04:41.894Z,59.80
2018-08-04T10:07:10.740Z,60.40
2018-08-04T10:09:39.069Z,60.10
2018-08-04T10:12:07.446Z,61.60
2018-08-04T10:14:35.782Z,62.60
2018-08-04T10:17:10.039Z,64.80
2018-08-04T10:19:38.601Z,65.90
2018-08-04T10:22:06.955Z,65.30
2018-08-04T10:24:35.342Z,66.40
2018-08-04T10:27:03.697Z,65.70
2018-08-04T10:29:32.094Z,65.00
2018-08-04T10:32:00.445Z,66.80
2018-08-04T10:34:28.755Z,67.50
2018-08-04T10:36:57.093Z,67.30
2018-08-04T10:39:25.443Z,66.80
2018-08-04T10:41:53.820Z,67.50
2018-08-04T10:44:22.119Z,67.30
2018-08-04T10:49:18.902Z,66.70
2018-08-04T10:51:48.239Z,65.10
2018-08-04T10:54:16.820Z,64.90
2018-08-04T10:56:45.128Z,64.00
2018-08-04T10:59:13.472Z,64.50
2018-08-04T11:01:41.824Z,64.50
2018-08-04T11:04:10.510Z,64.00
2018-08-04T11:06:39.110Z,64.60
